• Join FlightAware (Why Join?)
  • Login
  • US Flag 
11:15PM EDT


 

Airport Tracker/Info


-or-


 

Live Flight TrackerFlight Track Log ✈ SWA17 ✈ 03-Aug-2013 ✈ KALB - KBWI

Flight Track Log - Related Links

Times and Time Zones

All times are in EDT time to prevent confusion due to time zone crossing. See the SWA17 flight status page for this flight to view local times or setup timezone preferences in your user account.

Time Position Orientation Groundspeed Altitude Reporting Facility
EDT Latitude Longitude Course Direction KTS MPH feet Rate Location/Type
06:16AM 42.7319 -73.8053 273° West 143 165 1,400  Level Boston Center
06:19AM 42.7367 -73.9214 273° West 132 152 10,100 3,480 Climbing Boston Center
06:20AM 42.7669 -73.9928 300° West 173 199 14,100 3,300 Climbing Boston Center
06:21AM 42.7161 -74.0536 221° Southwest 192 221 16,700 2,640 Climbing Boston Center
06:22AM 42.6333 -74.0175 162° South 217 250 19,500 2,940 Climbing Boston Center
06:23AM 42.5153 -73.9611 161° South 294 338 22,700 3,540 Climbing Boston Center
06:24AM 42.4097 -73.9108 161° South 340 391 26,600 2,580 Climbing Boston Center
06:25AM 42.3081 -73.8606 160° South 370 426 28,000 660 Climbing Boston Center
06:26AM 42.2044 -73.8106 160° South 392 451 28,000  Level Boston Center
06:27AM 42.0947 -73.7606 161° South 405 466 28,000  Level Boston Center
06:28AM 41.9825 -73.7331 170° South 412 474 28,000  Level Boston Center
06:29AM 41.8839 -73.7925 204° Southwest 385 443 28,000 -60 Level Boston Center
06:30AM 41.7811 -73.8461 201° Southwest 385 443 27,900  Descending Boston Center
06:31AM 41.6739 -73.9103 204° Southwest 385 443 28,000  Climbing Boston Center
06:32AM 41.5753 -73.9664 203° Southwest 385 443 28,000  Level Boston Center
06:33AM 41.5111 -73.9986 201° Southwest 385 443 28,000  Level New York Center
06:34AM 41.4136 -74.0547 203° Southwest 390 449 28,000  Level New York Center
06:35AM 41.3122 -74.1133 203° Southwest 390 449 28,000  Level New York Center
06:36AM 41.2128 -74.1689 203° Southwest 395 455 28,000  Level New York Center
06:37AM 41.1175 -74.2164 201° Southwest 400 460 28,000  Level New York Center
06:38AM 41.0181 -74.2719 203° Southwest 400 460 28,000  Level New York Center
06:39AM 40.9164 -74.3272 202° Southwest 393 452 28,000  Level New York Center
06:40AM 40.8147 -74.3847 203° Southwest 393 452 28,000  Level New York Center
06:41AM 40.7367 -74.4819 223° Southwest 387 445 28,000  Level New York Center
06:42AM 40.6747 -74.5908 233° Southwest 377 434 28,000  Level New York Center
06:43AM 40.6089 -74.6992 231° Southwest 382 440 28,000  Level New York Center
06:44AM 40.5300 -74.8094 227° Southwest 382 440 28,000  Level New York Center
06:45AM 40.4597 -74.9144 229° Southwest 382 440 28,000  Level New York Center
06:46AM 40.3872 -75.0164 227° Southwest 382 440 28,000 -240 Level New York Center
06:47AM 40.3169 -75.1181 228° Southwest 382 440 27,600 -1,380 Descending New York Center
06:48AM 40.2464 -75.2169 227° Southwest 377 434 25,300 -2,400 Descending New York Center
06:49AM 40.1806 -75.3081 227° Southwest 366 421 22,900 -2,280 Descending New York Center
06:50AM 40.1167 -75.3989 227° Southwest 359 413 20,700 -2,220 Descending New York Center
06:51AM 40.0483 -75.4919 226° Southwest 353 406 18,400 -1,380 Descending New York Center
06:52AM 39.9908 -75.5692 226° Southwest 347 399 18,000 -720 Descending New York Center
06:53AM 39.9225 -75.6619 226° Southwest 338 389 17,100 -900 Descending New York Center
06:54AM 39.8792 -75.7483 237° Southwest 322 371 16,200 -1,020 Descending New York Center
06:55AM 39.8228 -75.8497 234° Southwest 317 365 15,100 -960 Descending New York Center
06:56AM 39.7500 -75.9833 235° Southwest 270 311 13,900 -900 Descending Potomac TRACON
06:57AM 39.7167 -76.0667 243° Southwest 265 305 12,900 -1,020 Descending Potomac TRACON
06:58AM 39.6667 -76.1333 226° Southwest 264 304 11,900 -1,500 Descending Potomac TRACON
06:59AM 39.6167 -76.2000 226° Southwest 273 314 10,000 -1,800 Descending Potomac TRACON
07:00AM 39.5500 -76.2500 210° Southwest 271 312 8,300 -1,740 Descending Potomac TRACON
07:01AM 39.5000 -76.3000 218° Southwest 272 313 6,700 -1,620 Descending Potomac TRACON
07:02AM 39.4333 -76.3500 210° Southwest 268 308 5,300 -1,080 Descending Potomac TRACON
07:03AM 39.3833 -76.3833 207° Southwest 266 306 4,700 -720 Descending Potomac TRACON
07:04AM 39.3167 -76.4333 210° Southwest 241 277 4,000 -840 Descending Potomac TRACON
07:05AM 39.2667 -76.4833 218° Southwest 227 261 3,200 -960 Descending Potomac TRACON
07:06AM 39.2167 -76.5167 207° Southwest 225 259 2,300 -840 Descending Potomac TRACON
07:07AM 39.1667 -76.5500 207° Southwest 211 243 1,700 -420 Descending Potomac TRACON
07:08AM 39.1333 -76.5833 218° Southwest 159 183 1,500 -300 Descending Potomac TRACON
07:09AM 39.1167 -76.6333 247° West 127 146 1,200 -540 Descending Potomac TRACON
07:10AM 39.1500 -76.6500 339° North 126 145 500 -780 Descending Potomac TRACON